Time;durP1;ratioP1;P1;durP2;ratioP2;P2;SDS_P1;SDS_P2;PMS_P1;PMS_P2;Temp;Humidity;BMP_temperature;BMP_pressure;BME280_temperature;BME280_humidity;BME280_pressure;Samples;Min_cycle;Max_cycle;Signal;HPM_P1;HPM_P2
2022/06/11 00:02:06;;;;;;;3.28;2.28;;;;;22.50;101924.00;;;;5069706;28;20206;-77
2022/06/11 00:04:38;;;;;;;2.63;2.00;;;;;22.40;101927.00;;;;5070845;28;20254;-77
2022/06/11 00:07:13;;;;;;;2.88;1.77;;;;;22.40;101916.00;;;;5068670;28;20234;-77
2022/06/11 00:09:41;;;;;;;2.70;2.45;;;;;22.40;101922.00;;;;5068386;28;20672;-78
2022/06/11 00:12:11;;;;;;;3.50;2.28;;;;;22.40;101919.00;;;;5067303;28;20209;-78
2022/06/11 00:14:40;;;;;;;3.45;3.03;;;;;22.30;101923.00;;;;5069458;28;20704;-78
2022/06/11 00:17:11;;;;;;;5.32;2.72;;;;;22.30;101923.00;;;;5068474;28;20203;-78
2022/06/11 00:19:39;;;;;;;4.07;2.30;;;;;22.30;101916.00;;;;5068898;28;20198;-77
2022/06/11 00:22:09;;;;;;;3.00;2.50;;;;;22.30;101924.00;;;;5069634;28;20660;-77
2022/06/11 00:24:37;;;;;;;3.30;2.30;;;;;22.30;101913.00;;;;5067756;28;20225;-78
2022/06/11 00:27:05;;;;;;;2.83;2.38;;;;;22.20;101917.00;;;;5068314;28;20213;-77
2022/06/11 00:29:35;;;;;;;3.22;2.42;;;;;22.20;101917.00;;;;5068334;28;20199;-78
2022/06/11 00:32:03;;;;;;;3.20;2.65;;;;;22.20;101915.00;;;;5068064;28;20200;-78
2022/06/11 00:34:31;;;;;;;4.03;2.47;;;;;22.20;101922.00;;;;5066798;28;20195;-77
2022/06/11 00:36:58;;;;;;;2.75;2.15;;;;;22.10;101913.00;;;;5069119;28;20217;-77
2022/06/11 00:39:30;;;;;;;4.00;2.42;;;;;22.10;101916.00;;;;5068931;28;20229;-77
2022/06/11 00:42:01;;;;;;;3.08;2.30;;;;;22.10;101914.00;;;;5069132;28;20234;-78
2022/06/11 00:44:28;;;;;;;3.60;2.40;;;;;22.10;101914.00;;;;5043640;28;20550;-78
2022/06/11 00:47:01;;;;;;;2.67;2.10;;;;;22.00;101905.00;;;;5049354;28;20203;-77
2022/06/11 00:49:35;;;;;;;3.55;2.35;;;;;22.00;101910.00;;;;5049486;28;20208;-78
2022/06/11 00:52:34;;;;;;;4.63;2.28;;;;;21.90;101906.00;;;;5050490;28;20214;-77
2022/06/11 00:55:10;;;;;;;3.55;2.25;;;;;21.90;101909.00;;;;5042723;28;20748;-78
2022/06/11 00:57:42;;;;;;;2.47;1.88;;;;;21.90;101910.00;;;;5049809;28;20217;-78
2022/06/11 01:00:15;;;;;;;2.10;1.88;;;;;21.90;101910.00;;;;5046287;28;20191;-78
2022/06/11 01:02:47;;;;;;;3.42;2.38;;;;;21.90;101904.00;;;;5047405;28;20202;-77
2022/06/11 01:05:18;;;;;;;4.65;2.30;;;;;21.90;101909.00;;;;5048602;28;20227;-78
2022/06/11 01:08:01;;;;;;;4.13;2.30;;;;;21.80;101900.00;;;;5047968;28;20195;-78
2022/06/11 01:11:21;;;;;;;3.08;2.35;;;;;21.70;101899.00;;;;5047166;28;20196;-77
2022/06/11 01:14:07;;;;;;;3.13;1.80;;;;;21.70;101901.00;;;;5004604;28;20224;-77
2022/06/11 01:16:46;;;;;;;2.80;1.60;;;;;21.70;101901.00;;;;5047959;28;20318;-76
2022/06/11 01:19:39;;;;;;;3.72;2.28;;;;;21.60;101898.00;;;;5047868;28;20196;-77
2022/06/11 01:22:18;;;;;;;3.35;1.80;;;;;21.70;101897.00;;;;5041987;28;20200;-77
2022/06/11 01:24:55;;;;;;;2.35;1.70;;;;;21.60;101892.00;;;;5044636;28;20219;-76
2022/06/11 01:27:54;;;;;;;2.22;1.58;;;;;21.50;101895.00;;;;5047873;28;20203;-77
2022/06/11 01:30:25;;;;;;;8.30;1.90;;;;;21.60;101897.00;;;;5041890;28;20673;-77
2022/06/11 01:33:02;;;;;;;2.70;1.75;;;;;21.50;101898.00;;;;5048416;28;20889;-77
2022/06/11 01:35:46;;;;;;;2.58;2.00;;;;;21.50;101890.00;;;;5035164;28;20200;-77
2022/06/11 01:38:23;;;;;;;2.58;2.15;;;;;21.50;101895.00;;;;5050202;28;20196;-77
2022/06/11 01:40:57;;;;;;;1.70;1.60;;;;;21.40;101895.00;;;;5047447;28;20210;-77
2022/06/11 01:43:29;;;;;;;2.10;1.80;;;;;21.40;101892.00;;;;5049303;28;20227;-77
2022/06/11 01:46:00;;;;;;;2.28;1.63;;;;;21.40;101891.00;;;;5048891;28;20696;-77
2022/06/11 01:48:29;;;;;;;1.83;1.60;;;;;21.40;101896.00;;;;5049101;28;20203;-77
2022/06/11 01:51:09;;;;;;;2.17;1.98;;;;;21.30;101897.00;;;;5045665;28;20576;-77
2022/06/11 01:53:53;;;;;;;2.17;1.35;;;;;21.30;101886.00;;;;5046417;28;20195;-77
2022/06/11 01:56:50;;;;;;;2.15;1.70;;;;;21.20;101897.00;;;;5046529;28;20206;-77
2022/06/11 01:59:33;;;;;;;1.85;1.55;;;;;21.30;101893.00;;;;5042925;28;20203;-77
2022/06/11 02:02:13;;;;;;;1.42;1.17;;;;;21.20;101892.00;;;;5042590;28;20200;-77
2022/06/11 02:04:53;;;;;;;1.77;1.50;;;;;21.20;101892.00;;;;5048957;28;20199;-77
2022/06/11 02:07:29;;;;;;;3.38;1.73;;;;;21.20;101894.00;;;;5048013;28;20206;-77
2022/06/11 02:10:04;;;;;;;3.05;1.52;;;;;21.20;101887.00;;;;5044186;28;20220;-77
2022/06/11 02:12:39;;;;;;;3.53;1.52;;;;;21.20;101891.00;;;;5049229;28;20191;-77
2022/06/11 02:15:12;;;;;;;2.97;1.50;;;;;21.20;101891.00;;;;5047865;28;20215;-77
2022/06/11 02:17:44;;;;;;;1.80;1.27;;;;;21.20;101883.00;;;;5048071;28;20215;-77
2022/06/11 02:20:16;;;;;;;1.95;1.27;;;;;21.20;101890.00;;;;5047756;28;20192;-77
2022/06/11 02:22:46;;;;;;;1.52;1.15;;;;;21.10;101897.00;;;;5049281;28;20195;-77
2022/06/11 02:25:21;;;;;;;2.67;1.25;;;;;21.10;101897.00;;;;5048255;28;20222;-77
2022/06/11 02:27:54;;;;;;;1.95;1.45;;;;;21.10;101902.00;;;;5047270;28;20203;-77
2022/06/11 02:30:26;;;;;;;4.82;1.80;;;;;21.10;101899.00;;;;5047448;28;20199;-77
2022/06/11 02:32:55;;;;;;;2.05;1.60;;;;;21.10;101902.00;;;;5047860;28;20202;-77
2022/06/11 02:35:31;;;;;;;1.95;1.00;;;;;21.00;101905.00;;;;5047900;28;20592;-77
2022/06/11 02:37:59;;;;;;;1.60;1.10;;;;;21.10;101906.00;;;;5048064;28;20596;-77
2022/06/11 02:40:31;;;;;;;1.60;1.38;;;;;21.00;101909.00;;;;5047200;28;20202;-77
2022/06/11 02:42:59;;;;;;;2.50;1.20;;;;;21.10;101916.00;;;;5046585;28;20318;-77
2022/06/11 02:45:26;;;;;;;1.55;1.20;;;;;21.00;101906.00;;;;5048160;28;20230;-77
2022/06/11 02:47:55;;;;;;;2.95;1.40;;;;;21.00;101910.00;;;;5047018;28;20191;-77
2022/06/11 02:50:26;;;;;;;1.52;1.20;;;;;21.00;101918.00;;;;5047094;28;20196;-77
2022/06/11 02:52:55;;;;;;;2.55;1.27;;;;;21.00;101918.00;;;;5047726;28;20226;-77
2022/06/11 02:55:22;;;;;;;2.72;1.27;;;;;21.00;101919.00;;;;5047686;28;20681;-76
2022/06/11 02:57:50;;;;;;;1.90;1.17;;;;;21.00;101925.00;;;;5047292;28;20200;-77
2022/06/11 03:00:21;;;;;;;3.25;0.93;;;;;21.00;101925.00;;;;5043703;28;20204;-77
2022/06/11 03:02:48;;;;;;;1.77;1.02;;;;;21.00;101933.00;;;;5046953;28;20211;-77
2022/06/11 03:05:21;;;;;;;2.78;1.25;;;;;21.00;101928.00;;;;5047884;28;20223;-77
2022/06/11 03:07:49;;;;;;;2.25;1.13;;;;;21.00;101933.00;;;;5047529;28;20204;-76
2022/06/11 03:10:19;;;;;;;2.95;0.85;;;;;21.00;101936.00;;;;5045295;28;20208;-77
2022/06/11 03:12:46;;;;;;;1.15;0.77;;;;;21.00;101934.00;;;;5045196;28;20677;-77
2022/06/11 03:15:15;;;;;;;2.45;1.10;;;;;21.00;101928.00;;;;5047008;28;20281;-77
2022/06/11 03:17:43;;;;;;;2.67;0.70;;;;;21.00;101937.00;;;;5040339;28;20200;-77
2022/06/11 03:20:12;;;;;;;2.10;0.88;;;;;21.00;101934.00;;;;5040958;28;20581;-77
2022/06/11 03:22:41;;;;;;;1.20;0.88;;;;;21.00;101936.00;;;;5028283;28;20230;-77
2022/06/11 03:25:09;;;;;;;2.08;0.95;;;;;21.00;101935.00;;;;5045019;28;20688;-77
2022/06/11 03:27:38;;;;;;;3.47;1.00;;;;;21.00;101945.00;;;;5047445;28;20203;-77
2022/06/11 03:30:07;;;;;;;2.42;1.23;;;;;21.00;101943.00;;;;5050030;28;20287;-77
2022/06/11 03:32:34;;;;;;;2.88;1.23;;;;;21.00;101938.00;;;;5049564;28;20203;-77
2022/06/11 03:35:02;;;;;;;2.45;1.00;;;;;21.00;101937.00;;;;5044901;28;20211;-77
2022/06/11 03:37:29;;;;;;;1.85;0.90;;;;;21.00;101943.00;;;;5050548;28;20192;-76
2022/06/11 03:39:58;;;;;;;2.30;1.00;;;;;21.00;101945.00;;;;5050682;28;20736;-76
2022/06/11 03:42:25;;;;;;;1.40;0.80;;;;;21.00;101948.00;;;;5049983;28;20223;-77
2022/06/11 03:44:53;;;;;;;5.38;1.00;;;;;21.00;101951.00;;;;5050091;28;20203;-76
2022/06/11 03:47:21;;;;;;;3.88;0.98;;;;;21.00;101964.00;;;;5050159;28;20566;-77
2022/06/11 03:49:48;;;;;;;5.28;1.02;;;;;21.00;101955.00;;;;5050243;28;20630;-77
2022/06/11 03:52:15;;;;;;;2.92;1.15;;;;;21.00;101959.00;;;;5048212;28;20206;-77
2022/06/11 03:54:43;;;;;;;3.08;0.90;;;;;20.90;101959.00;;;;5051272;28;20188;-77
2022/06/11 03:57:11;;;;;;;2.25;0.90;;;;;20.90;101970.00;;;;5050935;28;20196;-77
2022/06/11 03:59:39;;;;;;;0.60;0.50;;;;;21.00;101973.00;;;;5038105;28;20211;-76
2022/06/11 04:02:06;;;;;;;5.03;1.15;;;;;21.00;101972.00;;;;5048369;28;20199;-76
2022/06/11 04:04:34;;;;;;;1.90;0.90;;;;;21.00;101977.00;;;;5050289;28;20195;-77
2022/06/11 04:07:02;;;;;;;4.05;1.30;;;;;21.00;101976.00;;;;5050474;28;20226;-76
2022/06/11 04:09:35;;;;;;;4.07;1.30;;;;;20.90;101986.00;;;;5042817;28;20684;-77
2022/06/11 04:12:03;;;;;;;1.35;0.70;;;;;21.00;101986.00;;;;5048833;28;20211;-76
2022/06/11 04:14:32;;;;;;;4.13;1.00;;;;;21.00;101985.00;;;;5051329;28;20216;-77
2022/06/11 04:17:04;;;;;;;1.67;0.63;;;;;20.90;101987.00;;;;5050872;28;20581;-77
2022/06/11 04:19:35;;;;;;;1.73;0.55;;;;;21.00;101994.00;;;;5050708;28;20388;-76
2022/06/11 04:22:04;;;;;;;3.28;0.70;;;;;21.00;101985.00;;;;5048782;28;20572;-77
2022/06/11 04:24:32;;;;;;;3.47;0.95;;;;;21.00;101992.00;;;;5062050;28;20195;-77
2022/06/11 04:27:04;;;;;;;3.30;1.10;;;;;21.00;101992.00;;;;5047724;28;20235;-76
2022/06/11 04:29:37;;;;;;;4.45;1.33;;;;;21.00;101994.00;;;;5048919;28;20211;-76
2022/06/11 04:32:07;;;;;;;2.83;1.20;;;;;21.10;101996.00;;;;5046314;28;21037;-77
2022/06/11 04:34:35;;;;;;;5.40;1.30;;;;;21.10;102002.00;;;;5039789;28;20197;-76
2022/06/11 04:37:02;;;;;;;3.60;0.93;;;;;21.10;101997.00;;;;5029923;28;20678;-76
2022/06/11 04:39:32;;;;;;;3.65;1.40;;;;;21.10;101999.00;;;;5038144;28;20203;-77
2022/06/11 04:42:01;;;;;;;6.05;1.38;;;;;21.10;102009.00;;;;5045221;28;20277;-77
2022/06/11 04:44:28;;;;;;;3.17;0.98;;;;;21.20;102000.00;;;;5047132;28;20203;-77
2022/06/11 04:46:57;;;;;;;5.75;1.65;;;;;21.20;102003.00;;;;5047955;28;20218;-77
2022/06/11 04:49:25;;;;;;;5.82;1.20;;;;;21.20;102010.00;;;;5049056;28;20211;-77
2022/06/11 04:51:52;;;;;;;3.42;1.05;;;;;21.30;102014.00;;;;5048713;28;20215;-77
2022/06/11 04:54:20;;;;;;;4.15;1.45;;;;;21.30;102025.00;;;;5039092;28;20203;-77
2022/06/11 04:56:48;;;;;;;5.43;1.20;;;;;21.30;102025.00;;;;5049385;28;20192;-78
2022/06/11 04:59:15;;;;;;;6.72;1.30;;;;;21.40;102019.00;;;;5049499;28;20198;-77
2022/06/11 05:01:43;;;;;;;6.03;1.20;;;;;21.40;102014.00;;;;5048073;28;20569;-77
2022/06/11 05:04:14;;;;;;;4.47;1.00;;;;;21.50;102016.00;;;;5048284;28;20207;-77
2022/06/11 05:06:43;;;;;;;2.83;0.82;;;;;21.50;102023.00;;;;5029134;28;20228;-77
2022/06/11 05:09:13;;;;;;;5.60;1.02;;;;;21.50;102020.00;;;;5038598;28;20195;-77
2022/06/11 05:11:41;;;;;;;4.45;1.20;;;;;21.60;102022.00;;;;5048848;28;20199;-77
2022/06/11 05:14:09;;;;;;;5.28;1.80;;;;;21.60;102022.00;;;;5046017;28;20215;-78
2022/06/11 05:16:37;;;;;;;6.20;1.45;;;;;21.70;102031.00;;;;5046631;28;20211;-78
2022/06/11 05:19:06;;;;;;;5.75;1.55;;;;;21.70;102025.00;;;;5047623;28;20188;-77
2022/06/11 05:21:36;;;;;;;6.40;1.23;;;;;21.70;102018.00;;;;5048909;28;20206;-79
2022/06/11 05:24:03;;;;;;;8.32;1.70;;;;;21.80;102023.00;;;;5045520;28;20203;-79
2022/06/11 05:26:34;;;;;;;4.50;1.05;;;;;21.80;102033.00;;;;5049109;28;20218;-78
2022/06/11 05:29:02;;;;;;;4.50;1.50;;;;;21.90;102029.00;;;;5046662;28;20205;-78
2022/06/11 05:31:29;;;;;;;5.05;1.63;;;;;22.00;102038.00;;;;5044845;28;20191;-78
2022/06/11 05:33:57;;;;;;;4.00;1.27;;;;;22.00;102034.00;;;;5045790;28;20199;-80
2022/06/11 05:36:24;;;;;;;5.82;1.50;;;;;22.00;102038.00;;;;5048392;28;20207;-79
2022/06/11 05:38:53;;;;;;;6.97;1.83;;;;;22.10;102037.00;;;;5048808;28;20188;-78
2022/06/11 05:41:20;;;;;;;7.30;1.48;;;;;22.10;102041.00;;;;5047667;28;20282;-78
2022/06/11 05:43:48;;;;;;;7.88;1.70;;;;;22.20;102039.00;;;;5044826;28;20218;-78
2022/06/11 05:46:18;;;;;;;6.25;1.20;;;;;22.20;102030.00;;;;5049126;28;20230;-79
2022/06/11 05:48:48;;;;;;;4.47;1.35;;;;;22.30;102036.00;;;;5029549;28;20499;-79
2022/06/11 05:51:19;;;;;;;9.45;2.00;;;;;22.30;102042.00;;;;5045654;28;20214;-79
2022/06/11 05:53:48;;;;;;;10.30;2.08;;;;;22.40;102035.00;;;;5047555;28;20195;-79
2022/06/11 05:56:17;;;;;;;5.60;1.80;;;;;22.50;102043.00;;;;5049388;28;20207;-79
2022/06/11 05:58:54;;;;;;;5.63;1.38;;;;;22.50;102038.00;;;;5047266;28;20216;-79
2022/06/11 06:01:25;;;;;;;5.13;1.38;;;;;22.60;102046.00;;;;5045812;28;20191;-80
2022/06/11 06:03:52;;;;;;;7.03;1.85;;;;;22.60;102041.00;;;;5042329;28;20202;-80
2022/06/11 06:06:20;;;;;;;5.68;1.73;;;;;22.70;102052.00;;;;5044528;28;20220;-80
2022/06/11 06:08:47;;;;;;;7.07;1.50;;;;;22.70;102048.00;;;;5031915;28;20192;-80
2022/06/11 06:11:16;;;;;;;5.18;1.85;;;;;22.80;102050.00;;;;5048529;28;20290;-80
2022/06/11 06:13:49;;;;;;;5.18;2.00;;;;;22.90;102053.00;;;;5047994;28;20207;-80
2022/06/11 06:16:20;;;;;;;6.75;1.40;;;;;22.90;102057.00;;;;5045469;28;20294;-80
2022/06/11 06:18:48;;;;;;;5.70;2.15;;;;;23.00;102053.00;;;;5046096;28;20199;-79
2022/06/11 06:21:18;;;;;;;7.45;2.10;;;;;23.00;102058.00;;;;5044069;28;20605;-80
2022/06/11 06:23:46;;;;;;;9.80;1.60;;;;;23.10;102054.00;;;;5046409;28;20203;-80
2022/06/11 06:26:13;;;;;;;9.32;1.88;;;;;23.20;102062.00;;;;5046183;28;20200;-79
2022/06/11 06:28:42;;;;;;;8.55;1.88;;;;;23.20;102067.00;;;;5046721;28;20203;-79
2022/06/11 06:31:11;;;;;;;4.18;1.38;;;;;23.30;102066.00;;;;5046170;28;20693;-80
2022/06/11 06:33:39;;;;;;;5.35;1.88;;;;;23.30;102070.00;;;;5047080;28;20195;-79
2022/06/11 06:36:08;;;;;;;13.10;2.53;;;;;23.40;102058.00;;;;5046687;28;20207;-79
2022/06/11 06:38:37;;;;;;;10.15;1.88;;;;;23.40;102061.00;;;;5047660;28;20195;-79
2022/06/11 06:41:04;;;;;;;12.65;3.08;;;;;23.50;102063.00;;;;5043442;28;20423;-79
2022/06/11 06:43:32;;;;;;;8.13;1.70;;;;;23.60;102062.00;;;;5040413;28;20227;-78
2022/06/11 06:46:06;;;;;;;7.55;2.22;;;;;23.60;102081.00;;;;5053534;28;20202;-79
2022/06/11 06:48:34;;;;;;;15.02;2.90;;;;;23.70;102077.00;;;;5052700;28;20344;-79
2022/06/11 06:51:01;;;;;;;11.40;2.08;;;;;23.80;102073.00;;;;5047712;28;20198;-79
2022/06/11 06:53:30;;;;;;;11.85;2.70;;;;;23.80;102064.00;;;;5046884;28;20662;-77
2022/06/11 06:56:01;;;;;;;9.07;2.08;;;;;23.90;102075.00;;;;5046762;28;20192;-79
2022/06/11 06:58:29;;;;;;;9.77;2.15;;;;;23.90;102075.00;;;;5040480;28;20200;-79
2022/06/11 07:00:57;;;;;;;7.00;1.77;;;;;24.00;102081.00;;;;5040838;28;20206;-79
2022/06/11 07:03:26;;;;;;;7.45;1.75;;;;;24.10;102079.00;;;;5048454;28;20211;-77
2022/06/11 07:05:53;;;;;;;9.75;2.17;;;;;24.10;102078.00;;;;5048809;28;20736;-78
2022/06/11 07:08:22;;;;;;;7.03;2.10;;;;;24.20;102082.00;;;;5046700;28;20239;-80
2022/06/11 07:10:51;;;;;;;5.93;1.55;;;;;24.30;102083.00;;;;5045284;28;20290;-78
2022/06/11 07:13:19;;;;;;;3.55;1.20;;;;;24.30;102075.00;;;;5045555;28;20206;-78
2022/06/11 07:15:49;;;;;;;6.45;2.03;;;;;24.40;102081.00;;;;5045664;28;20216;-77
2022/06/11 07:18:21;;;;;;;5.93;1.80;;;;;24.50;102080.00;;;;5050289;28;20688;-78
2022/06/11 07:20:53;;;;;;;9.13;1.98;;;;;24.50;102079.00;;;;5051796;28;20199;-78
2022/06/11 07:23:25;;;;;;;4.97;1.52;;;;;24.60;102081.00;;;;5051100;28;20199;-78
2022/06/11 07:25:56;;;;;;;4.65;1.38;;;;;24.70;102080.00;;;;5051164;28;20204;-77
2022/06/11 07:28:28;;;;;;;5.43;1.85;;;;;24.80;102085.00;;;;5051428;28;20224;-78
2022/06/11 07:30:56;;;;;;;9.35;2.15;;;;;24.80;102086.00;;;;5051399;28;20188;-78
2022/06/11 07:33:26;;;;;;;11.95;2.20;;;;;24.90;102087.00;;;;5046136;28;20585;-78
2022/06/11 07:35:56;;;;;;;6.18;1.50;;;;;25.00;102076.00;;;;5050336;28;20207;-76
2022/06/11 07:38:24;;;;;;;6.63;1.90;;;;;25.10;102089.00;;;;5050751;28;20833;-77
2022/06/11 07:40:52;;;;;;;9.20;2.58;;;;;25.10;102092.00;;;;5048289;28;20199;-77
2022/06/11 07:43:19;;;;;;;7.38;1.80;;;;;25.20;102083.00;;;;5051591;28;20345;-78
2022/06/11 07:45:48;;;;;;;6.15;2.22;;;;;25.30;102087.00;;;;5050883;28;20207;-78
2022/06/11 07:48:16;;;;;;;8.82;2.10;;;;;25.30;102092.00;;;;5051144;28;20231;-78
2022/06/11 07:50:46;;;;;;;8.40;2.00;;;;;25.40;102086.00;;;;5037617;28;20199;-77
2022/06/11 07:53:15;;;;;;;5.55;1.45;;;;;25.40;102086.00;;;;5051553;28;20227;-77
2022/06/11 07:55:46;;;;;;;5.13;2.10;;;;;25.50;102084.00;;;;5051314;28;20203;-77
2022/06/11 07:58:16;;;;;;;6.95;1.98;;;;;25.60;102084.00;;;;5050932;28;20199;-77
2022/06/11 08:00:46;;;;;;;6.57;1.92;;;;;25.70;102091.00;;;;5050433;28;20689;-77
2022/06/11 08:03:14;;;;;;;5.80;1.58;;;;;25.80;102095.00;;;;5052057;28;20204;-78
2022/06/11 08:05:43;;;;;;;5.95;1.83;;;;;25.80;102085.00;;;;5050810;28;20681;-78
2022/06/11 08:08:10;;;;;;;8.57;1.42;;;;;25.90;102088.00;;;;5044314;28;20231;-77
2022/06/11 08:10:41;;;;;;;6.45;1.52;;;;;26.00;102095.00;;;;5048623;28;20708;-78
2022/06/11 08:13:09;;;;;;;6.13;1.52;;;;;26.10;102092.00;;;;5049961;28;20204;-78
2022/06/11 08:15:38;;;;;;;8.32;1.95;;;;;26.20;102090.00;;;;5049779;28;20227;-78
2022/06/11 08:18:05;;;;;;;7.38;1.73;;;;;26.20;102093.00;;;;5050332;28;20200;-78
2022/06/11 08:20:34;;;;;;;7.05;1.58;;;;;26.30;102105.00;;;;5048829;28;20200;-78
2022/06/11 08:23:02;;;;;;;8.43;1.58;;;;;26.40;102105.00;;;;5047416;28;20204;-78
2022/06/11 08:25:30;;;;;;;6.47;1.65;;;;;26.50;102101.00;;;;5029949;28;20245;-78
2022/06/11 08:27:59;;;;;;;6.88;2.03;;;;;26.50;102102.00;;;;5035531;28;20220;-77
2022/06/11 08:30:29;;;;;;;5.13;1.85;;;;;26.60;102103.00;;;;5050051;28;20199;-78
2022/06/11 08:32:56;;;;;;;5.57;1.42;;;;;26.70;102107.00;;;;5048424;28;20195;-79
2022/06/11 08:35:27;;;;;;;5.78;1.35;;;;;26.70;102104.00;;;;5050233;28;20184;-78
2022/06/11 08:37:55;;;;;;;6.72;1.58;;;;;26.80;102112.00;;;;5048001;28;20300;-79
2022/06/11 08:40:28;;;;;;;6.50;1.85;;;;;26.80;102108.00;;;;5057052;28;20204;-78
2022/06/11 08:43:01;;;;;;;7.80;1.70;;;;;26.90;102105.00;;;;5046638;28;20231;-78
2022/06/11 08:45:37;;;;;;;8.13;1.95;;;;;27.00;102107.00;;;;5047172;28;20206;-79
2022/06/11 08:48:16;;;;;;;9.30;1.45;;;;;27.10;102106.00;;;;5048537;28;20230;-78
2022/06/11 08:50:53;;;;;;;9.73;1.83;;;;;27.20;102102.00;;;;5048854;28;20207;-79
2022/06/11 08:53:22;;;;;;;7.00;1.60;;;;;27.30;102106.00;;;;5047700;28;20596;-79
2022/06/11 08:55:50;;;;;;;6.22;1.38;;;;;27.40;102098.00;;;;5046508;28;20265;-79
2022/06/11 08:58:32;;;;;;;7.10;2.25;;;;;27.40;102099.00;;;;5046594;28;20213;-78
2022/06/11 09:01:11;;;;;;;6.80;1.40;;;;;27.50;102107.00;;;;5045371;28;20195;-78
2022/06/11 09:04:03;;;;;;;6.68;1.83;;;;;27.60;102108.00;;;;5043965;28;20192;-78
2022/06/11 09:06:58;;;;;;;5.53;1.50;;;;;27.60;102109.00;;;;5035656;28;20200;-80
2022/06/11 09:09:38;;;;;;;7.07;1.50;;;;;27.70;102107.00;;;;5045952;28;20207;-80
2022/06/11 09:12:17;;;;;;;8.60;2.20;;;;;27.80;102110.00;;;;5049620;28;20206;-79
2022/06/11 09:15:16;;;;;;;4.38;1.10;;;;;27.80;102107.00;;;;5038350;28;20223;-80
2022/06/11 09:18:22;;;;;;;6.68;1.23;;;;;27.90;102113.00;;;;5042471;28;20203;-80
2022/06/11 09:20:58;;;;;;;5.65;1.27;;;;;28.00;102116.00;;;;5039075;28;20199;-79
2022/06/11 09:24:06;;;;;;;6.80;1.20;;;;;28.00;102126.00;;;;5041265;28;20196;-80
2022/06/11 09:26:45;;;;;;;5.82;1.13;;;;;28.10;102128.00;;;;5038748;28;21762;-80
2022/06/11 09:29:18;;;;;;;2.92;0.82;;;;;28.30;102114.00;;;;5047319;28;20317;-78
2022/06/11 09:32:01;;;;;;;5.30;1.42;;;;;28.30;102118.00;;;;5047092;28;20586;-79
2022/06/11 09:34:39;;;;;;;6.85;1.73;;;;;28.40;102117.00;;;;5046359;28;20203;-79
2022/06/11 09:37:13;;;;;;;6.38;1.40;;;;;28.50;102121.00;;;;5048286;28;20657;-80
2022/06/11 09:39:43;;;;;;;6.80;1.30;;;;;28.60;102120.00;;;;5048381;28;20203;-79
2022/06/11 09:42:39;;;;;;;3.88;1.25;;;;;28.60;102119.00;;;;5048089;28;20227;-79
2022/06/11 09:45:14;;;;;;;7.60;1.38;;;;;28.80;102122.00;;;;5048117;28;20203;-79
2022/06/11 09:47:55;;;;;;;8.95;1.73;;;;;28.80;102125.00;;;;5048510;28;20226;-79
2022/06/11 09:50:26;;;;;;;4.93;1.10;;;;;28.80;102121.00;;;;5038771;28;20204;-78
2022/06/11 09:53:16;;;;;;;7.43;1.55;;;;;28.70;102127.00;;;;5042733;28;20196;-79
2022/06/11 09:55:53;;;;;;;4.82;1.38;;;;;28.80;102121.00;;;;5042871;28;20200;-79
2022/06/11 09:58:29;;;;;;;6.00;1.50;;;;;28.80;102122.00;;;;5047224;28;20206;-79
2022/06/11 10:01:00;;;;;;;4.30;1.00;;;;;28.90;102129.00;;;;5047511;28;20202;-79
2022/06/11 10:03:36;;;;;;;6.82;1.45;;;;;28.80;102138.00;;;;5045484;28;20199;-79
2022/06/11 10:06:07;;;;;;;7.40;1.83;;;;;28.90;102125.00;;;;5044826;28;20199;-78
2022/06/11 10:08:41;;;;;;;7.57;1.67;;;;;29.00;102131.00;;;;5046102;28;20230;-79
2022/06/11 10:11:19;;;;;;;7.55;1.98;;;;;29.00;102132.00;;;;5049042;28;20202;-79
2022/06/11 10:13:53;;;;;;;7.25;1.98;;;;;29.10;102136.00;;;;5048047;28;20211;-79
2022/06/11 10:16:33;;;;;;;6.05;1.30;;;;;29.00;102137.00;;;;5047945;28;20199;-79
2022/06/11 10:19:14;;;;;;;5.75;1.73;;;;;29.10;102134.00;;;;5048691;28;20187;-79
2022/06/11 10:21:50;;;;;;;4.68;1.17;;;;;29.20;102132.00;;;;5045251;28;20651;-79
2022/06/11 10:24:20;;;;;;;5.60;1.55;;;;;29.30;102134.00;;;;5048033;28;20585;-79
2022/06/11 10:26:54;;;;;;;5.20;1.23;;;;;29.30;102136.00;;;;5046294;28;20200;-78
2022/06/11 10:29:28;;;;;;;6.95;1.33;;;;;29.30;102132.00;;;;5048627;28;20223;-79
2022/06/11 10:32:02;;;;;;;7.50;1.83;;;;;29.30;102144.00;;;;5047814;28;20210;-79
2022/06/11 10:34:32;;;;;;;4.63;1.25;;;;;29.30;102142.00;;;;5044956;28;20206;-79
2022/06/11 10:37:07;;;;;;;6.55;1.58;;;;;29.30;102139.00;;;;5047590;28;20194;-79
2022/06/11 10:39:46;;;;;;;11.18;1.35;;;;;29.30;102142.00;;;;5052171;28;20211;-79
2022/06/11 10:42:16;;;;;;;6.82;1.25;;;;;29.30;102140.00;;;;5052377;28;20343;-79
2022/06/11 10:44:48;;;;;;;8.43;2.30;;;;;29.30;102150.00;;;;5051129;28;20662;-78
2022/06/11 10:47:18;;;;;;;5.97;1.70;;;;;29.40;102147.00;;;;5039229;28;20196;-78
2022/06/11 10:49:50;;;;;;;4.63;1.02;;;;;29.40;102143.00;;;;5031464;28;20224;-79
2022/06/11 10:52:27;;;;;;;9.63;2.10;;;;;29.40;102155.00;;;;5032532;28;20251;-78
2022/06/11 10:54:54;;;;;;;5.50;1.13;;;;;29.50;102148.00;;;;5040234;28;20972;-79
2022/06/11 10:57:25;;;;;;;7.28;1.77;;;;;29.50;102142.00;;;;5050773;28;20214;-79
2022/06/11 11:00:01;;;;;;;4.00;1.73;;;;;29.50;102139.00;;;;5051663;28;20206;-78
2022/06/11 11:02:32;;;;;;;4.55;1.38;;;;;29.50;102137.00;;;;5051442;28;20203;-79
2022/06/11 11:05:05;;;;;;;5.03;1.50;;;;;29.50;102136.00;;;;5052206;28;20213;-79
2022/06/11 11:07:45;;;;;;;7.00;1.90;;;;;29.50;102140.00;;;;5046398;28;20197;-79
2022/06/11 11:10:22;;;;;;;14.40;1.85;;;;;29.40;102141.00;;;;5040373;28;20278;-78
2022/06/11 11:12:52;;;;;;;7.13;1.40;;;;;29.40;102137.00;;;;5039463;28;20196;-78
2022/06/11 11:15:22;;;;;;;7.45;1.55;;;;;29.40;102134.00;;;;5051886;28;20219;-79
2022/06/11 11:17:52;;;;;;;5.55;1.90;;;;;29.40;102137.00;;;;5051063;28;20196;-78
2022/06/11 11:20:34;;;;;;;7.35;1.65;;;;;29.40;102143.00;;;;5051351;28;20196;-78
2022/06/11 11:23:07;;;;;;;4.38;1.38;;;;;29.40;102135.00;;;;5051286;28;20226;-78
2022/06/11 11:25:37;;;;;;;8.57;1.58;;;;;29.40;102128.00;;;;5051855;28;20215;-79
2022/06/11 11:28:07;;;;;;;7.15;1.80;;;;;29.40;102129.00;;;;5051168;28;20227;-78
2022/06/11 11:30:38;;;;;;;5.20;1.10;;;;;29.40;102127.00;;;;5044690;28;20200;-78
2022/06/11 11:33:23;;;;;;;2.67;1.10;;;;;29.30;102122.00;;;;5044602;28;20203;-79
2022/06/11 11:36:11;;;;;;;5.57;1.30;;;;;29.30;102133.00;;;;5050076;28;20203;-78
2022/06/11 11:38:40;;;;;;;5.85;1.77;;;;;29.40;102128.00;;;;5049447;28;20226;-77
2022/06/11 11:41:21;;;;;;;11.13;2.03;;;;;29.30;102133.00;;;;5041920;28;20687;-79
2022/06/11 11:43:49;;;;;;;3.20;1.20;;;;;29.30;102133.00;;;;5044105;28;20202;-80
2022/06/11 11:46:22;;;;;;;3.47;1.30;;;;;29.30;102129.00;;;;5051001;28;20319;-79
2022/06/11 11:48:52;;;;;;;2.58;1.30;;;;;29.30;102127.00;;;;5033128;28;20228;-80
2022/06/11 11:51:25;;;;;;;5.97;1.73;;;;;29.30;102116.00;;;;5031064;28;20200;-79
2022/06/11 11:53:58;;;;;;;8.52;2.05;;;;;29.30;102125.00;;;;5029736;28;20215;-79
2022/06/11 11:56:30;;;;;;;3.75;1.33;;;;;29.30;102131.00;;;;5030991;28;20196;-80
2022/06/11 11:59:02;;;;;;;6.22;1.65;;;;;29.30;102132.00;;;;5030039;28;20196;-80
2022/06/11 12:01:31;;;;;;;5.90;1.05;;;;;29.30;102117.00;;;;5041731;28;20191;-80
2022/06/11 12:04:05;;;;;;;4.20;1.23;;;;;29.30;102120.00;;;;5049751;28;20226;-80
2022/06/11 12:06:38;;;;;;;4.95;1.25;;;;;29.30;102127.00;;;;5049975;28;20199;-80
2022/06/11 12:09:19;;;;;;;12.07;1.50;;;;;29.20;102127.00;;;;5049865;28;20226;-80
2022/06/11 12:11:58;;;;;;;6.40;1.30;;;;;29.20;102126.00;;;;5047626;28;20207;-80
2022/06/11 12:14:32;;;;;;;8.30;1.85;;;;;29.20;102142.00;;;;5047331;28;20223;-79
2022/06/11 12:17:05;;;;;;;4.05;1.45;;;;;29.20;102133.00;;;;5049436;28;20206;-79
2022/06/11 12:19:34;;;;;;;6.68;1.67;;;;;29.30;102127.00;;;;5050115;28;20522;-80
2022/06/11 12:22:07;;;;;;;6.00;1.52;;;;;29.30;102126.00;;;;5038831;28;20212;-80
2022/06/11 12:24:41;;;;;;;8.43;1.60;;;;;29.30;102114.00;;;;5047157;28;20568;-80
2022/06/11 12:27:14;;;;;;;7.18;1.23;;;;;29.30;102122.00;;;;5049476;28;20207;-80
2022/06/11 12:29:46;;;;;;;5.75;1.95;;;;;29.30;102113.00;;;;5049370;28;20223;-79
2022/06/11 12:32:18;;;;;;;4.13;1.48;;;;;29.30;102127.00;;;;5049418;28;20202;-79
2022/06/11 12:34:46;;;;;;;4.15;1.25;;;;;29.30;102126.00;;;;5047878;28;20666;-80